sensor_id;sensor_type;location;lat;lon;timestamp;pressure;altitude;pressure_sealevel;temperature;humidity
84316;BME280;74496;52.236;5.164;2024-02-04T00:00:30;102294.00;;;11.99;80.75
84316;BME280;74496;52.236;5.164;2024-02-04T00:02:58;102294.00;;;11.99;80.73
84316;BME280;74496;52.236;5.164;2024-02-04T00:05:25;102293.56;;;12.05;80.50
84316;BME280;74496;52.236;5.164;2024-02-04T00:07:52;102285.84;;;12.02;80.48
84316;BME280;74496;52.236;5.164;2024-02-04T00:10:18;102286.28;;;11.95;80.74
84316;BME280;74496;52.236;5.164;2024-02-04T00:12:45;102287.25;;;11.94;80.16
84316;BME280;74496;52.236;5.164;2024-02-04T00:15:12;102296.31;;;11.90;80.19
84316;BME280;74496;52.236;5.164;2024-02-04T00:17:39;102288.63;;;11.87;80.28
84316;BME280;74496;52.236;5.164;2024-02-04T00:20:08;102289.88;;;11.82;80.69
84316;BME280;74496;52.236;5.164;2024-02-04T00:22:35;102301.22;;;11.71;80.97
84316;BME280;74496;52.236;5.164;2024-02-04T00:25:01;102289.97;;;11.80;80.46
84316;BME280;74496;52.236;5.164;2024-02-04T00:27:30;102293.69;;;11.78;80.61
84316;BME280;74496;52.236;5.164;2024-02-04T00:29:57;102288.31;;;11.79;80.58
84316;BME280;74496;52.236;5.164;2024-02-04T00:32:24;102282.50;;;11.74;80.74
84316;BME280;74496;52.236;5.164;2024-02-04T00:34:51;102294.88;;;11.73;81.15
84316;BME280;74496;52.236;5.164;2024-02-04T00:37:19;102288.75;;;11.73;81.09
84316;BME280;74496;52.236;5.164;2024-02-04T00:39:46;102283.00;;;11.79;80.86
84316;BME280;74496;52.236;5.164;2024-02-04T00:42:13;102283.63;;;11.83;80.76
84316;BME280;74496;52.236;5.164;2024-02-04T00:44:39;102289.16;;;11.80;80.69
84316;BME280;74496;52.236;5.164;2024-02-04T00:47:06;102281.44;;;11.77;81.01
84316;BME280;74496;52.236;5.164;2024-02-04T00:49:33;102279.84;;;11.87;80.44
84316;BME280;74496;52.236;5.164;2024-02-04T00:52:00;102286.28;;;11.83;80.70
84316;BME280;74496;52.236;5.164;2024-02-04T00:54:28;102279.41;;;11.80;81.01
84316;BME280;74496;52.236;5.164;2024-02-04T00:56:55;102282.88;;;11.81;80.79
84316;BME280;74496;52.236;5.164;2024-02-04T00:59:23;102278.69;;;11.78;81.02
84316;BME280;74496;52.236;5.164;2024-02-04T01:01:49;102281.97;;;11.82;80.84
84316;BME280;74496;52.236;5.164;2024-02-04T01:04:16;102271.59;;;11.79;80.93
84316;BME280;74496;52.236;5.164;2024-02-04T01:06:43;102277.72;;;11.79;81.06
84316;BME280;74496;52.236;5.164;2024-02-04T01:09:09;102278.34;;;11.83;80.94
84316;BME280;74496;52.236;5.164;2024-02-04T01:11:38;102273.16;;;11.81;80.54
84316;BME280;74496;52.236;5.164;2024-02-04T01:14:04;102266.94;;;11.82;80.95
84316;BME280;74496;52.236;5.164;2024-02-04T01:16:31;102280.38;;;11.79;80.35
84316;BME280;74496;52.236;5.164;2024-02-04T01:18:58;102276.13;;;11.77;80.81
84316;BME280;74496;52.236;5.164;2024-02-04T01:21:25;102270.50;;;11.81;80.67
84316;BME280;74496;52.236;5.164;2024-02-04T01:23:52;102274.88;;;11.82;80.63
84316;BME280;74496;52.236;5.164;2024-02-04T01:26:19;102281.84;;;11.83;80.47
84316;BME280;74496;52.236;5.164;2024-02-04T01:28:47;102280.03;;;11.84;79.83
84316;BME280;74496;52.236;5.164;2024-02-04T01:31:14;102282.88;;;11.81;79.83
84316;BME280;74496;52.236;5.164;2024-02-04T01:33:40;102279.84;;;11.87;80.03
84316;BME280;74496;52.236;5.164;2024-02-04T01:36:07;102281.94;;;11.94;79.22
84316;BME280;74496;52.236;5.164;2024-02-04T01:38:34;102277.94;;;11.89;79.38
84316;BME280;74496;52.236;5.164;2024-02-04T01:41:01;102279.53;;;11.79;79.15
84316;BME280;74496;52.236;5.164;2024-02-04T01:43:27;102275.31;;;11.76;78.71
84316;BME280;74496;52.236;5.164;2024-02-04T01:45:56;102273.94;;;11.70;78.42
84316;BME280;74496;52.236;5.164;2024-02-04T01:48:23;102266.44;;;11.64;78.02
84316;BME280;74496;52.236;5.164;2024-02-04T01:50:53;102277.34;;;11.60;77.75
84316;BME280;74496;52.236;5.164;2024-02-04T01:53:22;102284.97;;;11.51;78.24
84316;BME280;74496;52.236;5.164;2024-02-04T01:55:49;102282.88;;;11.44;78.15
84316;BME280;74496;52.236;5.164;2024-02-04T01:58:16;102280.97;;;11.46;78.14
84316;BME280;74496;52.236;5.164;2024-02-04T02:00:44;102275.06;;;11.42;78.03
84316;BME280;74496;52.236;5.164;2024-02-04T02:03:14;102280.34;;;11.42;78.15
84316;BME280;74496;52.236;5.164;2024-02-04T02:05:42;102283.09;;;11.41;78.22
84316;BME280;74496;52.236;5.164;2024-02-04T02:08:09;102286.91;;;11.37;78.12
84316;BME280;74496;52.236;5.164;2024-02-04T02:10:36;102290.72;;;11.33;78.06
84316;BME280;74496;52.236;5.164;2024-02-04T02:13:09;102290.94;;;11.30;78.18
84316;BME280;74496;52.236;5.164;2024-02-04T02:15:41;102290.31;;;11.26;78.39
84316;BME280;74496;52.236;5.164;2024-02-04T02:18:11;102273.69;;;11.24;78.02
84316;BME280;74496;52.236;5.164;2024-02-04T02:20:45;102279.31;;;11.19;78.39
84316;BME280;74496;52.236;5.164;2024-02-04T02:23:21;102268.75;;;11.19;78.17
84316;BME280;74496;52.236;5.164;2024-02-04T02:25:51;102274.34;;;11.15;79.17
84316;BME280;74496;52.236;5.164;2024-02-04T02:28:18;102265.47;;;11.16;78.88
84316;BME280;74496;52.236;5.164;2024-02-04T02:30:44;102274.66;;;11.23;78.43
84316;BME280;74496;52.236;5.164;2024-02-04T02:33:12;102262.50;;;11.20;78.51
84316;BME280;74496;52.236;5.164;2024-02-04T02:35:38;102275.91;;;11.17;78.52
84316;BME280;74496;52.236;5.164;2024-02-04T02:38:14;102268.63;;;11.08;78.57
84316;BME280;74496;52.236;5.164;2024-02-04T02:40:47;102279.53;;;11.03;79.12
84316;BME280;74496;52.236;5.164;2024-02-04T02:43:16;102271.38;;;11.07;78.68
84316;BME280;74496;52.236;5.164;2024-02-04T02:45:44;102268.97;;;11.03;78.66
84316;BME280;74496;52.236;5.164;2024-02-04T02:48:11;102265.28;;;11.06;78.51
84316;BME280;74496;52.236;5.164;2024-02-04T02:50:38;102267.28;;;11.02;78.86
84316;BME280;74496;52.236;5.164;2024-02-04T02:53:05;102260.06;;;11.04;78.85
84316;BME280;74496;52.236;5.164;2024-02-04T02:55:32;102276.03;;;11.03;78.35
84316;BME280;74496;52.236;5.164;2024-02-04T02:57:58;102275.28;;;11.01;78.80
84316;BME280;74496;52.236;5.164;2024-02-04T03:00:27;102277.28;;;10.97;78.70
84316;BME280;74496;52.236;5.164;2024-02-04T03:02:53;102277.41;;;10.96;78.88
84316;BME280;74496;52.236;5.164;2024-02-04T03:05:21;102273.81;;;10.97;79.01
84316;BME280;74496;52.236;5.164;2024-02-04T03:07:47;102271.38;;;11.07;78.75
84316;BME280;74496;52.236;5.164;2024-02-04T03:10:14;102274.66;;;11.10;78.33
84316;BME280;74496;52.236;5.164;2024-02-04T03:12:41;102271.28;;;11.08;78.29
84316;BME280;74496;52.236;5.164;2024-02-04T03:15:08;102264.72;;;11.01;78.43
84316;BME280;74496;52.236;5.164;2024-02-04T03:17:36;102266.63;;;10.99;78.88
84316;BME280;74496;52.236;5.164;2024-02-04T03:20:03;102264.44;;;11.06;78.65
84316;BME280;74496;52.236;5.164;2024-02-04T03:22:30;102261.34;;;10.99;79.16
84316;BME280;74496;52.236;5.164;2024-02-04T03:24:57;102258.59;;;10.88;79.13
84316;BME280;74496;52.236;5.164;2024-02-04T03:27:24;102244.97;;;10.94;78.57
84316;BME280;74496;52.236;5.164;2024-02-04T03:29:51;102246.66;;;10.95;78.50
84316;BME280;74496;52.236;5.164;2024-02-04T03:32:17;102256.91;;;10.87;79.04
84316;BME280;74496;52.236;5.164;2024-02-04T03:34:45;102244.03;;;10.95;78.30
84316;BME280;74496;52.236;5.164;2024-02-04T03:37:12;102251.44;;;10.90;78.19
84316;BME280;74496;52.236;5.164;2024-02-04T03:39:39;102269.06;;;10.89;78.80
84316;BME280;74496;52.236;5.164;2024-02-04T03:42:06;102268.00;;;10.92;78.34
84316;BME280;74496;52.236;5.164;2024-02-04T03:44:33;102274.84;;;10.82;77.95
84316;BME280;74496;52.236;5.164;2024-02-04T03:47:00;102275.28;;;11.01;77.36
84316;BME280;74496;52.236;5.164;2024-02-04T03:49:28;102275.72;;;10.95;76.93
84316;BME280;74496;52.236;5.164;2024-02-04T03:51:57;102272.22;;;10.82;77.05
84316;BME280;74496;52.236;5.164;2024-02-04T03:54:23;102272.13;;;10.83;77.17
84316;BME280;74496;52.236;5.164;2024-02-04T03:56:50;102275.69;;;10.82;77.16
84316;BME280;74496;52.236;5.164;2024-02-04T03:59:17;102273.25;;;10.79;76.50
84316;BME280;74496;52.236;5.164;2024-02-04T04:01:47;102273.38;;;10.77;76.65
84316;BME280;74496;52.236;5.164;2024-02-04T04:04:14;102265.22;;;10.68;75.87
84316;BME280;74496;52.236;5.164;2024-02-04T04:06:40;102263.38;;;10.83;75.96
84316;BME280;74496;52.236;5.164;2024-02-04T04:09:09;102263.34;;;10.70;75.53
84316;BME280;74496;52.236;5.164;2024-02-04T04:11:36;102253.44;;;10.73;76.23
84316;BME280;74496;52.236;5.164;2024-02-04T04:14:03;102239.81;;;10.67;76.16
84316;BME280;74496;52.236;5.164;2024-02-04T04:16:29;102234.53;;;10.67;76.69
84316;BME280;74496;52.236;5.164;2024-02-04T04:18:56;102246.97;;;10.65;76.63
84316;BME280;74496;52.236;5.164;2024-02-04T04:21:23;102259.75;;;10.71;76.50
84316;BME280;74496;52.236;5.164;2024-02-04T04:23:50;102242.97;;;10.72;76.60
84316;BME280;74496;52.236;5.164;2024-02-04T04:26:18;102234.72;;;10.64;76.95
84316;BME280;74496;52.236;5.164;2024-02-04T04:28:45;102244.31;;;10.65;77.03
84316;BME280;74496;52.236;5.164;2024-02-04T04:31:12;102240.63;;;10.67;76.28
84316;BME280;74496;52.236;5.164;2024-02-04T04:33:38;102238.72;;;10.69;76.81
84316;BME280;74496;52.236;5.164;2024-02-04T04:36:06;102228.81;;;10.60;77.61
84316;BME280;74496;52.236;5.164;2024-02-04T04:38:33;102238.63;;;10.58;77.95
84316;BME280;74496;52.236;5.164;2024-02-04T04:41:00;102234.81;;;10.62;77.36
84316;BME280;74496;52.236;5.164;2024-02-04T04:43:28;102219.19;;;10.59;77.50
84316;BME280;74496;52.236;5.164;2024-02-04T04:45:56;102221.75;;;10.61;77.54
84316;BME280;74496;52.236;5.164;2024-02-04T04:48:23;102223.00;;;10.55;77.96
84316;BME280;74496;52.236;5.164;2024-02-04T04:50:50;102221.75;;;10.61;78.37
84316;BME280;74496;52.236;5.164;2024-02-04T04:53:17;102214.47;;;10.64;78.17
84316;BME280;74496;52.236;5.164;2024-02-04T04:55:44;102209.06;;;10.66;77.78
84316;BME280;74496;52.236;5.164;2024-02-04T04:58:11;102204.31;;;10.71;77.89
84316;BME280;74496;52.236;5.164;2024-02-04T05:00:39;102198.31;;;10.69;77.37
84316;BME280;74496;52.236;5.164;2024-02-04T05:03:05;102206.53;;;10.64;78.28
84316;BME280;74496;52.236;5.164;2024-02-04T05:05:32;102204.66;;;10.66;78.09
84316;BME280;74496;52.236;5.164;2024-02-04T05:07:59;102199.66;;;10.62;78.05
84316;BME280;74496;52.236;5.164;2024-02-04T05:10:25;102195.25;;;10.62;78.08
84316;BME280;74496;52.236;5.164;2024-02-04T05:12:52;102205.69;;;10.64;77.91
84316;BME280;74496;52.236;5.164;2024-02-04T05:15:19;102196.75;;;10.66;77.88
84316;BME280;74496;52.236;5.164;2024-02-04T05:17:48;102206.97;;;10.71;77.53
84316;BME280;74496;52.236;5.164;2024-02-04T05:20:15;102224.59;;;10.70;77.45
84316;BME280;74496;52.236;5.164;2024-02-04T05:22:41;102209.69;;;10.69;77.62
84316;BME280;74496;52.236;5.164;2024-02-04T05:25:09;102202.03;;;10.66;77.68
84316;BME280;74496;52.236;5.164;2024-02-04T05:27:36;102194.94;;;10.67;78.20
84316;BME280;74496;52.236;5.164;2024-02-04T05:30:04;102190.81;;;10.63;78.22
84316;BME280;74496;52.236;5.164;2024-02-04T05:32:31;102193.88;;;10.69;77.84
84316;BME280;74496;52.236;5.164;2024-02-04T05:34:59;102185.34;;;10.53;78.10
84316;BME280;74496;52.236;5.164;2024-02-04T05:37:26;102166.75;;;10.67;78.01
84316;BME280;74496;52.236;5.164;2024-02-04T05:39:53;102178.47;;;10.63;78.16
84316;BME280;74496;52.236;5.164;2024-02-04T05:42:20;102187.31;;;10.62;78.63
84316;BME280;74496;52.236;5.164;2024-02-04T05:44:46;102200.50;;;10.62;78.40
84316;BME280;74496;52.236;5.164;2024-02-04T05:47:13;102200.00;;;10.70;78.46
84316;BME280;74496;52.236;5.164;2024-02-04T05:49:40;102196.28;;;10.72;77.92
84316;BME280;74496;52.236;5.164;2024-02-04T05:52:08;102191.69;;;10.76;77.96
84316;BME280;74496;52.236;5.164;2024-02-04T05:54:37;102193.44;;;10.75;77.96
84316;BME280;74496;52.236;5.164;2024-02-04T05:57:05;102176.69;;;10.76;78.16
84316;BME280;74496;52.236;5.164;2024-02-04T05:59:31;102168.97;;;10.73;77.98
84316;BME280;74496;52.236;5.164;2024-02-04T06:01:58;102171.91;;;10.82;77.69
84316;BME280;74496;52.236;5.164;2024-02-04T06:04:25;102170.22;;;10.80;77.75
84316;BME280;74496;52.236;5.164;2024-02-04T06:06:52;102161.34;;;10.82;77.09
84316;BME280;74496;52.236;5.164;2024-02-04T06:09:20;102170.09;;;10.82;77.51
84316;BME280;74496;52.236;5.164;2024-02-04T06:11:46;102159.75;;;10.79;76.99
84316;BME280;74496;52.236;5.164;2024-02-04T06:14:13;102166.97;;;10.77;77.21
84316;BME280;74496;52.236;5.164;2024-02-04T06:16:40;102161.06;;;10.73;77.39
84316;BME280;74496;52.236;5.164;2024-02-04T06:19:06;102156.50;;;10.75;77.70
84316;BME280;74496;52.236;5.164;2024-02-04T06:21:34;102152.28;;;10.73;77.78
84316;BME280;74496;52.236;5.164;2024-02-04T06:24:01;102153.84;;;10.75;77.89
84316;BME280;74496;52.236;5.164;2024-02-04T06:26:29;102147.94;;;10.59;78.58
84316;BME280;74496;52.236;5.164;2024-02-04T06:28:55;102152.94;;;10.64;78.52
84316;BME280;74496;52.236;5.164;2024-02-04T06:31:22;102152.59;;;10.68;78.50
84316;BME280;74496;52.236;5.164;2024-02-04T06:33:49;102151.44;;;10.72;78.74
84316;BME280;74496;52.236;5.164;2024-02-04T06:36:16;102141.19;;;10.80;78.21
84316;BME280;74496;52.236;5.164;2024-02-04T06:38:43;102143.09;;;10.78;78.72
84316;BME280;74496;52.236;5.164;2024-02-04T06:41:10;102157.44;;;10.87;78.31
84316;BME280;74496;52.236;5.164;2024-02-04T06:43:39;102138.66;;;10.79;78.30
84316;BME280;74496;52.236;5.164;2024-02-04T06:46:06;102148.78;;;10.85;78.50
84316;BME280;74496;52.236;5.164;2024-02-04T06:48:33;102152.03;;;10.89;78.63
84316;BME280;74496;52.236;5.164;2024-02-04T06:51:00;102148.13;;;10.94;78.40
84316;BME280;74496;52.236;5.164;2024-02-04T06:53:27;102149.53;;;10.87;78.58
84316;BME280;74496;52.236;5.164;2024-02-04T06:55:54;102141.28;;;10.92;78.85
84316;BME280;74496;52.236;5.164;2024-02-04T06:58:20;102131.34;;;10.95;78.74
84316;BME280;74496;52.236;5.164;2024-02-04T07:00:48;102125.75;;;11.00;78.57
84316;BME280;74496;52.236;5.164;2024-02-04T07:03:15;102123.94;;;11.00;78.58
84316;BME280;74496;52.236;5.164;2024-02-04T07:05:42;102115.63;;;10.94;79.30
84316;BME280;74496;52.236;5.164;2024-02-04T07:08:12;102120.56;;;10.98;79.32
84316;BME280;74496;52.236;5.164;2024-02-04T07:10:39;102122.06;;;11.02;79.44
84316;BME280;74496;52.236;5.164;2024-02-04T07:13:05;102125.63;;;11.01;79.71
84316;BME280;74496;52.236;5.164;2024-02-04T07:15:33;102125.00;;;10.98;80.02
84316;BME280;74496;52.236;5.164;2024-02-04T07:18:01;102115.28;;;10.98;80.00
84316;BME280;74496;52.236;5.164;2024-02-04T07:20:28;102118.66;;;11.00;80.27
84316;BME280;74496;52.236;5.164;2024-02-04T07:22:55;102111.59;;;11.01;80.11
84316;BME280;74496;52.236;5.164;2024-02-04T07:25:21;102118.84;;;11.10;79.91
84316;BME280;74496;52.236;5.164;2024-02-04T07:27:49;102118.25;;;11.07;80.37
84316;BME280;74496;52.236;5.164;2024-02-04T07:30:16;102128.03;;;11.17;80.00
84316;BME280;74496;52.236;5.164;2024-02-04T07:32:43;102133.31;;;11.17;80.31
84316;BME280;74496;52.236;5.164;2024-02-04T07:35:11;102132.03;;;11.23;80.16
84316;BME280;74496;52.236;5.164;2024-02-04T07:37:38;102136.97;;;11.27;79.72
84316;BME280;74496;52.236;5.164;2024-02-04T07:40:05;102149.97;;;11.31;79.35
84316;BME280;74496;52.236;5.164;2024-02-04T07:42:32;102135.91;;;11.30;79.23
84316;BME280;74496;52.236;5.164;2024-02-04T07:44:59;102139.09;;;11.35;79.00
84316;BME280;74496;52.236;5.164;2024-02-04T07:47:33;102140.44;;;11.28;79.39
84316;BME280;74496;52.236;5.164;2024-02-04T07:50:00;102139.09;;;11.35;79.03
84316;BME280;74496;52.236;5.164;2024-02-04T07:52:28;102127.38;;;11.26;79.54
84316;BME280;74496;52.236;5.164;2024-02-04T07:54:55;102130.19;;;11.36;78.93
84316;BME280;74496;52.236;5.164;2024-02-04T07:57:22;102126.50;;;11.39;78.77
84316;BME280;74496;52.236;5.164;2024-02-04T07:59:48;102135.13;;;11.41;78.90
84316;BME280;74496;52.236;5.164;2024-02-04T08:02:15;102130.69;;;11.41;78.42
84316;BME280;74496;52.236;5.164;2024-02-04T08:04:42;102124.03;;;11.48;78.27
84316;BME280;74496;52.236;5.164;2024-02-04T08:07:09;102125.63;;;11.38;77.82
84316;BME280;74496;52.236;5.164;2024-02-04T08:09:37;102126.94;;;11.33;78.16
84316;BME280;74496;52.236;5.164;2024-02-04T08:12:04;102120.13;;;11.41;77.87
84316;BME280;74496;52.236;5.164;2024-02-04T08:14:31;102128.91;;;11.42;77.25
84316;BME280;74496;52.236;5.164;2024-02-04T08:17:00;102134.69;;;11.47;77.39
84316;BME280;74496;52.236;5.164;2024-02-04T08:19:27;102130.50;;;11.32;77.10
84316;BME280;74496;52.236;5.164;2024-02-04T08:21:53;102130.38;;;11.46;77.02
84316;BME280;74496;52.236;5.164;2024-02-04T08:24:20;102128.34;;;11.49;76.87
84316;BME280;74496;52.236;5.164;2024-02-04T08:26:48;102129.06;;;11.51;76.81
84316;BME280;74496;52.236;5.164;2024-02-04T08:29:15;102132.56;;;11.52;77.06
84316;BME280;74496;52.236;5.164;2024-02-04T08:31:42;102125.03;;;11.59;76.50
84316;BME280;74496;52.236;5.164;2024-02-04T08:34:08;102125.97;;;11.58;76.58
84316;BME280;74496;52.236;5.164;2024-02-04T08:36:35;102114.34;;;11.60;76.66
84316;BME280;74496;52.236;5.164;2024-02-04T08:39:01;102126.94;;;11.57;76.81
84316;BME280;74496;52.236;5.164;2024-02-04T08:41:28;102112.88;;;11.56;77.02
84316;BME280;74496;52.236;5.164;2024-02-04T08:43:56;102105.69;;;11.58;77.36
84316;BME280;74496;52.236;5.164;2024-02-04T08:46:23;102100.16;;;11.61;77.15
84316;BME280;74496;52.236;5.164;2024-02-04T08:48:50;102089.56;;;11.50;78.29
84316;BME280;74496;52.236;5.164;2024-02-04T08:51:17;102095.06;;;11.47;78.49
84316;BME280;74496;52.236;5.164;2024-02-04T08:53:44;102094.47;;;11.55;78.28
84316;BME280;74496;52.236;5.164;2024-02-04T08:56:11;102093.88;;;11.51;78.67
84316;BME280;74496;52.236;5.164;2024-02-04T08:58:38;102098.22;;;11.52;79.01
84316;BME280;74496;52.236;5.164;2024-02-04T09:01:06;102095.81;;;11.49;79.52
84316;BME280;74496;52.236;5.164;2024-02-04T09:03:33;102083.22;;;11.53;79.16
84316;BME280;74496;52.236;5.164;2024-02-04T09:06:01;102083.53;;;11.48;79.78
84316;BME280;74496;52.236;5.164;2024-02-04T09:08:27;102088.72;;;11.49;79.95
84316;BME280;74496;52.236;5.164;2024-02-04T09:10:54;102091.44;;;11.48;80.11
84316;BME280;74496;52.236;5.164;2024-02-04T09:13:21;102101.56;;;11.54;80.12
84316;BME280;74496;52.236;5.164;2024-02-04T09:15:48;102102.81;;;11.61;79.76
84316;BME280;74496;52.236;5.164;2024-02-04T09:18:16;102115.56;;;11.67;79.56
84316;BME280;74496;52.236;5.164;2024-02-04T09:20:43;102112.53;;;11.61;79.92
84316;BME280;74496;52.236;5.164;2024-02-04T09:23:10;102117.88;;;11.72;79.59
84316;BME280;74496;52.236;5.164;2024-02-04T09:25:36;102119.22;;;11.78;79.46
84316;BME280;74496;52.236;5.164;2024-02-04T09:28:03;102114.53;;;11.81;79.10
84316;BME280;74496;52.236;5.164;2024-02-04T09:30:30;102117.50;;;11.89;78.81
84316;BME280;74496;52.236;5.164;2024-02-04T09:32:57;102113.34;;;11.98;78.43
84316;BME280;74496;52.236;5.164;2024-02-04T09:35:25;102101.56;;;12.13;77.68
84316;BME280;74496;52.236;5.164;2024-02-04T09:37:52;102108.13;;;11.85;78.70
84316;BME280;74496;52.236;5.164;2024-02-04T09:40:18;102097.47;;;11.98;78.60
84316;BME280;74496;52.236;5.164;2024-02-04T09:42:45;102100.22;;;11.96;78.60
84316;BME280;74496;52.236;5.164;2024-02-04T09:45:14;102107.22;;;12.09;77.94
84316;BME280;74496;52.236;5.164;2024-02-04T09:47:42;102095.19;;;12.05;77.77
84316;BME280;74496;52.236;5.164;2024-02-04T09:50:11;102097.34;;;12.11;77.78
84316;BME280;74496;52.236;5.164;2024-02-04T09:52:40;102099.16;;;12.10;78.19
84316;BME280;74496;52.236;5.164;2024-02-04T09:55:07;102102.63;;;12.11;77.82
84316;BME280;74496;52.236;5.164;2024-02-04T09:57:36;102093.25;;;12.07;78.05
84316;BME280;74496;52.236;5.164;2024-02-04T10:00:03;102093.31;;;12.18;77.57
84316;BME280;74496;52.236;5.164;2024-02-04T10:02:37;102109.03;;;12.19;77.49
84316;BME280;74496;52.236;5.164;2024-02-04T10:05:04;102105.44;;;12.20;76.98
84316;BME280;74496;52.236;5.164;2024-02-04T10:07:31;102106.06;;;12.24;76.82
84316;BME280;74496;52.236;5.164;2024-02-04T10:09:59;102098.13;;;12.24;76.85
84316;BME280;74496;52.236;5.164;2024-02-04T10:12:26;102097.88;;;12.27;76.83
84316;BME280;74496;52.236;5.164;2024-02-04T10:14:52;102097.53;;;12.32;76.23
84316;BME280;74496;52.236;5.164;2024-02-04T10:17:21;102106.91;;;12.36;76.41
84316;BME280;74496;52.236;5.164;2024-02-04T10:19:48;102104.41;;;12.34;76.23
84316;BME280;74496;52.236;5.164;2024-02-04T10:22:15;102108.25;;;12.41;75.82
84316;BME280;74496;52.236;5.164;2024-02-04T10:24:42;102105.69;;;12.40;75.70
84316;BME280;74496;52.236;5.164;2024-02-04T10:27:11;102108.13;;;12.32;75.79
84316;BME280;74496;52.236;5.164;2024-02-04T10:29:38;102108.59;;;12.37;75.81
84316;BME280;74496;52.236;5.164;2024-02-04T10:32:05;102114.00;;;12.35;75.54
84316;BME280;74496;52.236;5.164;2024-02-04T10:34:36;102109.69;;;12.34;75.71
84316;BME280;74496;52.236;5.164;2024-02-04T10:37:03;102108.34;;;12.29;75.59
84316;BME280;74496;52.236;5.164;2024-02-04T10:39:30;102118.31;;;12.25;75.60
84316;BME280;74496;52.236;5.164;2024-02-04T10:42:02;102114.59;;;12.28;75.92
84316;BME280;74496;52.236;5.164;2024-02-04T10:44:35;102122.78;;;12.25;75.90
84316;BME280;74496;52.236;5.164;2024-02-04T10:47:05;102125.97;;;12.17;76.20
84316;BME280;74496;52.236;5.164;2024-02-04T10:49:33;102117.13;;;12.29;75.97
84316;BME280;74496;52.236;5.164;2024-02-04T10:52:06;102125.66;;;12.22;75.96
84316;BME280;74496;52.236;5.164;2024-02-04T10:54:34;102111.47;;;12.23;76.33
84316;BME280;74496;52.236;5.164;2024-02-04T10:57:05;102127.25;;;12.35;75.86
84316;BME280;74496;52.236;5.164;2024-02-04T10:59:34;102132.28;;;12.38;76.40
84316;BME280;74496;52.236;5.164;2024-02-04T11:02:01;102124.81;;;12.32;75.98
84316;BME280;74496;52.236;5.164;2024-02-04T11:04:28;102118.31;;;12.36;76.31
84316;BME280;74496;52.236;5.164;2024-02-04T11:06:55;102113.03;;;12.36;76.68
84316;BME280;74496;52.236;5.164;2024-02-04T11:09:22;102117.84;;;12.31;77.06
84316;BME280;74496;52.236;5.164;2024-02-04T11:11:51;102123.88;;;12.44;76.98
84316;BME280;74496;52.236;5.164;2024-02-04T11:14:20;102128.44;;;12.42;76.88
84316;BME280;74496;52.236;5.164;2024-02-04T11:17:04;102121.56;;;12.40;77.55
84316;BME280;74496;52.236;5.164;2024-02-04T11:19:46;102125.19;;;12.39;77.99
84316;BME280;74496;52.236;5.164;2024-02-04T11:22:43;102127.09;;;12.37;78.16
84316;BME280;74496;52.236;5.164;2024-02-04T11:25:42;102114.00;;;12.24;78.99
84316;BME280;74496;52.236;5.164;2024-02-04T11:28:10;102116.75;;;12.23;78.88
84316;BME280;74496;52.236;5.164;2024-02-04T11:30:38;102106.41;;;12.19;78.80
84316;BME280;74496;52.236;5.164;2024-02-04T11:33:06;102110.25;;;12.15;79.23
84316;BME280;74496;52.236;5.164;2024-02-04T11:35:33;102103.38;;;12.02;79.84
84316;BME280;74496;52.236;5.164;2024-02-04T11:38:00;102089.69;;;12.08;79.63
84316;BME280;74496;52.236;5.164;2024-02-04T11:40:31;102096.88;;;12.06;79.73
84316;BME280;74496;52.236;5.164;2024-02-04T11:43:05;102090.97;;;12.02;80.24
84316;BME280;74496;52.236;5.164;2024-02-04T11:45:32;102096.50;;;12.10;79.63
84316;BME280;74496;52.236;5.164;2024-02-04T11:48:06;102087.38;;;12.03;79.52
84316;BME280;74496;52.236;5.164;2024-02-04T11:50:35;102087.72;;;11.99;80.01
84316;BME280;74496;52.236;5.164;2024-02-04T11:53:05;102088.94;;;12.06;79.44
84316;BME280;74496;52.236;5.164;2024-02-04T11:55:33;102085.94;;;12.10;79.39
84316;BME280;74496;52.236;5.164;2024-02-04T11:58:00;102088.56;;;11.99;79.68
84316;BME280;74496;52.236;5.164;2024-02-04T12:00:26;102091.66;;;11.93;79.97
84316;BME280;74496;52.236;5.164;2024-02-04T12:03:00;102078.22;;;12.07;79.09
84316;BME280;74496;52.236;5.164;2024-02-04T12:05:28;102071.03;;;11.98;79.66
84316;BME280;74496;52.236;5.164;2024-02-04T12:07:56;102060.47;;;12.09;79.30
84316;BME280;74496;52.236;5.164;2024-02-04T12:10:24;102061.53;;;12.07;79.32
84316;BME280;74496;52.236;5.164;2024-02-04T12:12:52;102060.22;;;12.01;79.85
84316;BME280;74496;52.236;5.164;2024-02-04T12:15:19;102060.47;;;12.09;79.49
84316;BME280;74496;52.236;5.164;2024-02-04T12:17:46;102053.25;;;12.11;79.63
84316;BME280;74496;52.236;5.164;2024-02-04T12:20:13;102046.53;;;12.18;79.11
84316;BME280;74496;52.236;5.164;2024-02-04T12:22:40;102041.84;;;12.22;79.27
84316;BME280;74496;52.236;5.164;2024-02-04T12:25:08;102047.88;;;12.24;79.49
84316;BME280;74496;52.236;5.164;2024-02-04T12:27:35;102053.50;;;12.19;79.47
84316;BME280;74496;52.236;5.164;2024-02-04T12:30:03;102043.66;;;12.33;78.76
84316;BME280;74496;52.236;5.164;2024-02-04T12:32:31;102054.00;;;12.36;78.83
84316;BME280;74496;52.236;5.164;2024-02-04T12:34:58;102052.91;;;12.38;78.78
84316;BME280;74496;52.236;5.164;2024-02-04T12:37:24;102056.16;;;12.42;78.60
84316;BME280;74496;52.236;5.164;2024-02-04T12:39:52;102061.81;;;12.49;78.19
84316;BME280;74496;52.236;5.164;2024-02-04T12:42:20;102060.84;;;12.50;78.17
84316;BME280;74496;52.236;5.164;2024-02-04T12:44:47;102040.53;;;12.39;78.25
84316;BME280;74496;52.236;5.164;2024-02-04T12:47:18;102044.03;;;12.51;77.46
84316;BME280;74496;52.236;5.164;2024-02-04T12:49:45;102044.38;;;12.46;78.28
84316;BME280;74496;52.236;5.164;2024-02-04T12:52:12;102032.47;;;12.52;77.83